sensor_id;sensor_type;location;lat;lon;timestamp;pressure;altitude;pressure_sealevel;temperature;humidity
64362;BME280;50685;53.346;-6.296;2022-09-27T00:01:58;100659.97;;;10.82;77.07
64362;BME280;50685;53.346;-6.296;2022-09-27T00:04:24;100659.97;;;10.82;76.70
64362;BME280;50685;53.346;-6.296;2022-09-27T00:06:51;100649.34;;;10.80;76.79
64362;BME280;50685;53.346;-6.296;2022-09-27T00:09:19;100660.88;;;10.79;76.65
64362;BME280;50685;53.346;-6.296;2022-09-27T00:11:45;100656.41;;;10.81;76.90
64362;BME280;50685;53.346;-6.296;2022-09-27T00:14:12;100667.00;;;10.83;76.28
64362;BME280;50685;53.346;-6.296;2022-09-27T00:16:40;100670.59;;;10.79;76.27
64362;BME280;50685;53.346;-6.296;2022-09-27T00:19:10;100661.78;;;10.76;76.57
64362;BME280;50685;53.346;-6.296;2022-09-27T00:21:36;100652.13;;;10.72;76.23
64362;BME280;50685;53.346;-6.296;2022-09-27T00:24:01;100641.56;;;10.71;76.52
64362;BME280;50685;53.346;-6.296;2022-09-27T00:26:27;100654.81;;;10.71;76.39
64362;BME280;50685;53.346;-6.296;2022-09-27T00:28:53;100654.84;;;10.69;76.63
64362;BME280;50685;53.346;-6.296;2022-09-27T00:31:22;100638.03;;;10.69;76.71
64362;BME280;50685;53.346;-6.296;2022-09-27T00:33:48;100653.03;;;10.71;76.64
64362;BME280;50685;53.346;-6.296;2022-09-27T00:36:14;100656.56;;;10.72;76.48
64362;BME280;50685;53.346;-6.296;2022-09-27T00:38:40;100649.47;;;10.72;76.56
64362;BME280;50685;53.346;-6.296;2022-09-27T00:41:08;100645.06;;;10.71;76.74
64362;BME280;50685;53.346;-6.296;2022-09-27T00:43:56;100637.16;;;10.70;76.94
64362;BME280;50685;53.346;-6.296;2022-09-27T00:46:25;100639.78;;;10.70;77.13
64362;BME280;50685;53.346;-6.296;2022-09-27T00:48:57;100629.19;;;10.70;77.03
64362;BME280;50685;53.346;-6.296;2022-09-27T00:51:24;100645.97;;;10.70;77.35
64362;BME280;50685;53.346;-6.296;2022-09-27T00:53:51;100639.78;;;10.70;77.52
64362;BME280;50685;53.346;-6.296;2022-09-27T00:56:19;100630.91;;;10.72;77.44
64362;BME280;50685;53.346;-6.296;2022-09-27T00:58:50;100619.38;;;10.75;77.39
64362;BME280;50685;53.346;-6.296;2022-09-27T01:01:17;100630.88;;;10.75;77.24
64362;BME280;50685;53.346;-6.296;2022-09-27T01:03:45;100639.66;;;10.77;77.47
64362;BME280;50685;53.346;-6.296;2022-09-27T01:06:13;100632.63;;;10.75;77.53
64362;BME280;50685;53.346;-6.296;2022-09-27T01:08:38;100619.34;;;10.76;77.90
64362;BME280;50685;53.346;-6.296;2022-09-27T01:11:11;100615.81;;;10.76;78.23
64362;BME280;50685;53.346;-6.296;2022-09-27T01:13:48;100614.06;;;10.75;78.13
64362;BME280;50685;53.346;-6.296;2022-09-27T01:19:06;100621.19;;;10.73;78.12
64362;BME280;50685;53.346;-6.296;2022-09-27T01:21:44;100615.88;;;10.73;78.13
64362;BME280;50685;53.346;-6.296;2022-09-27T01:32:18;100606.06;;;10.78;77.13
64362;BME280;50685;53.346;-6.296;2022-09-27T01:35:03;100597.16;;;10.82;76.68
64362;BME280;50685;53.346;-6.296;2022-09-27T01:42:44;100590.88;;;10.88;76.20
64362;BME280;50685;53.346;-6.296;2022-09-27T01:45:25;100566.97;;;10.89;75.71
64362;BME280;50685;53.346;-6.296;2022-09-27T01:47:56;100565.25;;;10.87;75.77
64362;BME280;50685;53.346;-6.296;2022-09-27T01:50:44;100571.41;;;10.87;75.57
64362;BME280;50685;53.346;-6.296;2022-09-27T01:53:16;100565.22;;;10.88;75.44
64362;BME280;50685;53.346;-6.296;2022-09-27T01:55:43;100568.75;;;10.87;75.66
64362;BME280;50685;53.346;-6.296;2022-09-27T02:00:36;100574.97;;;10.88;75.58
64362;BME280;50685;53.346;-6.296;2022-09-27T02:03:04;100552.91;;;10.84;75.46
64362;BME280;50685;53.346;-6.296;2022-09-27T02:05:36;100543.13;;;10.86;75.50
64362;BME280;50685;53.346;-6.296;2022-09-27T02:08:06;100541.38;;;10.87;75.41
64362;BME280;50685;53.346;-6.296;2022-09-27T02:10:33;100544.88;;;10.87;75.62
64362;BME280;50685;53.346;-6.296;2022-09-27T02:13:05;100550.19;;;10.89;75.51
64362;BME280;50685;53.346;-6.296;2022-09-27T02:15:41;100544.81;;;10.92;75.38
64362;BME280;50685;53.346;-6.296;2022-09-27T02:18:12;100545.69;;;10.91;75.41
64362;BME280;50685;53.346;-6.296;2022-09-27T02:20:43;100544.81;;;10.92;75.26
64362;BME280;50685;53.346;-6.296;2022-09-27T02:23:25;100557.16;;;10.93;75.38
64362;BME280;50685;53.346;-6.296;2022-09-27T02:25:55;100540.34;;;10.92;75.45
64362;BME280;50685;53.346;-6.296;2022-09-27T02:28:32;100542.19;;;10.90;75.68
64362;BME280;50685;53.346;-6.296;2022-09-27T02:30:59;100543.94;;;10.91;75.72
64362;BME280;50685;53.346;-6.296;2022-09-27T02:33:26;100527.09;;;10.92;75.90
64362;BME280;50685;53.346;-6.296;2022-09-27T02:35:53;100518.34;;;10.89;75.93
64362;BME280;50685;53.346;-6.296;2022-09-27T02:38:21;100506.78;;;10.90;76.07
64362;BME280;50685;53.346;-6.296;2022-09-27T02:40:47;100495.38;;;10.88;76.28
64362;BME280;50685;53.346;-6.296;2022-09-27T02:43:13;100513.94;;;10.88;76.60
64362;BME280;50685;53.346;-6.296;2022-09-27T02:51:16;100521.00;;;10.87;76.73
64362;BME280;50685;53.346;-6.296;2022-09-27T02:53:55;100526.31;;;10.87;77.11
64362;BME280;50685;53.346;-6.296;2022-09-27T02:56:25;100509.50;;;10.88;76.69
64362;BME280;50685;53.346;-6.296;2022-09-27T03:06:40;100495.22;;;10.96;76.19
64362;BME280;50685;53.346;-6.296;2022-09-27T03:09:19;100493.38;;;10.99;76.20
64362;BME280;50685;53.346;-6.296;2022-09-27T03:11:45;100493.34;;;11.01;75.94
64362;BME280;50685;53.346;-6.296;2022-09-27T03:14:10;100494.19;;;11.03;75.52
64362;BME280;50685;53.346;-6.296;2022-09-27T03:16:37;100485.31;;;11.04;75.03
64362;BME280;50685;53.346;-6.296;2022-09-27T03:19:02;100465.84;;;11.05;74.93
64362;BME280;50685;53.346;-6.296;2022-09-27T03:21:28;100477.31;;;11.05;74.77
64362;BME280;50685;53.346;-6.296;2022-09-27T03:23:53;100473.72;;;11.08;74.72
64362;BME280;50685;53.346;-6.296;2022-09-27T03:26:19;100462.22;;;11.09;74.47
64362;BME280;50685;53.346;-6.296;2022-09-27T03:28:46;100453.34;;;11.10;74.42
64362;BME280;50685;53.346;-6.296;2022-09-27T03:31:12;100455.03;;;11.14;74.11
64362;BME280;50685;53.346;-6.296;2022-09-27T03:33:38;100452.38;;;11.14;74.28
64362;BME280;50685;53.346;-6.296;2022-09-27T03:36:04;100455.91;;;11.15;74.20
64362;BME280;50685;53.346;-6.296;2022-09-27T03:38:29;100460.34;;;11.14;74.04
64362;BME280;50685;53.346;-6.296;2022-09-27T03:40:54;100455.00;;;11.16;73.91
64362;BME280;50685;53.346;-6.296;2022-09-27T03:43:20;100442.66;;;11.15;74.30
64362;BME280;50685;53.346;-6.296;2022-09-27T03:45:45;100447.06;;;11.14;74.18
64362;BME280;50685;53.346;-6.296;2022-09-27T03:48:11;100455.03;;;11.14;74.32
64362;BME280;50685;53.346;-6.296;2022-09-27T03:50:37;100440.84;;;11.15;74.08
64362;BME280;50685;53.346;-6.296;2022-09-27T03:53:02;100448.78;;;11.17;74.04
64362;BME280;50685;53.346;-6.296;2022-09-27T03:55:28;100447.91;;;11.16;73.98
64362;BME280;50685;53.346;-6.296;2022-09-27T03:57:53;100437.31;;;11.16;74.03
64362;BME280;50685;53.346;-6.296;2022-09-27T04:00:18;100444.41;;;11.14;74.13
64362;BME280;50685;53.346;-6.296;2022-09-27T04:02:44;100439.09;;;11.14;74.03
64362;BME280;50685;53.346;-6.296;2022-09-27T04:05:09;100435.59;;;11.14;74.05
64362;BME280;50685;53.346;-6.296;2022-09-27T04:07:35;100445.31;;;11.15;73.94
64362;BME280;50685;53.346;-6.296;2022-09-27T04:10:01;100429.38;;;11.15;73.96
64362;BME280;50685;53.346;-6.296;2022-09-27T04:12:28;100438.25;;;11.14;73.92
64362;BME280;50685;53.346;-6.296;2022-09-27T04:14:54;100434.69;;;11.13;73.98
64362;BME280;50685;53.346;-6.296;2022-09-27T04:17:19;100440.03;;;11.12;74.21
64362;BME280;50685;53.346;-6.296;2022-09-27T04:19:44;100431.22;;;11.09;74.35
64362;BME280;50685;53.346;-6.296;2022-09-27T04:22:10;100423.25;;;11.09;74.23
64362;BME280;50685;53.346;-6.296;2022-09-27T04:24:35;100429.47;;;11.10;74.21
64362;BME280;50685;53.346;-6.296;2022-09-27T04:27:03;100434.78;;;11.08;73.85
64362;BME280;50685;53.346;-6.296;2022-09-27T04:29:29;100441.03;;;11.07;74.04
64362;BME280;50685;53.346;-6.296;2022-09-27T04:31:56;100437.47;;;11.07;74.07
64362;BME280;50685;53.346;-6.296;2022-09-27T04:34:24;100434.00;;;11.05;74.09
64362;BME280;50685;53.346;-6.296;2022-09-27T04:37:09;100417.28;;;11.01;74.24
64362;BME280;50685;53.346;-6.296;2022-09-27T04:39:35;100419.06;;;10.99;74.33
64362;BME280;50685;53.346;-6.296;2022-09-27T04:42:01;100420.88;;;10.99;74.26
64362;BME280;50685;53.346;-6.296;2022-09-27T04:44:26;100411.19;;;10.95;74.55
64362;BME280;50685;53.346;-6.296;2022-09-27T04:46:52;100416.53;;;10.93;74.64
64362;BME280;50685;53.346;-6.296;2022-09-27T04:49:17;100421.81;;;10.95;74.49
64362;BME280;50685;53.346;-6.296;2022-09-27T04:51:45;100428.91;;;10.92;74.53
64362;BME280;50685;53.346;-6.296;2022-09-27T04:54:11;100420.97;;;10.92;74.72
64362;BME280;50685;53.346;-6.296;2022-09-27T04:56:36;100427.19;;;10.91;74.54
64362;BME280;50685;53.346;-6.296;2022-09-27T04:59:01;100420.09;;;10.92;74.61
64362;BME280;50685;53.346;-6.296;2022-09-27T05:01:27;100415.66;;;10.94;74.37
64362;BME280;50685;53.346;-6.296;2022-09-27T05:03:53;100428.06;;;10.92;74.61
64362;BME280;50685;53.346;-6.296;2022-09-27T05:06:18;100423.59;;;10.92;74.76
64362;BME280;50685;53.346;-6.296;2022-09-27T05:08:44;100423.59;;;10.92;74.72
64362;BME280;50685;53.346;-6.296;2022-09-27T05:11:09;100429.00;;;10.89;74.88
64362;BME280;50685;53.346;-6.296;2022-09-27T05:13:35;100429.03;;;10.88;74.85
64362;BME280;50685;53.346;-6.296;2022-09-27T05:16:01;100418.44;;;10.86;74.93
64362;BME280;50685;53.346;-6.296;2022-09-27T05:18:27;100439.66;;;10.86;74.86
64362;BME280;50685;53.346;-6.296;2022-09-27T05:20:54;100417.56;;;10.86;75.11
64362;BME280;50685;53.346;-6.296;2022-09-27T05:23:22;100435.28;;;10.84;75.14
64362;BME280;50685;53.346;-6.296;2022-09-27T05:25:47;100425.56;;;10.84;75.16
64362;BME280;50685;53.346;-6.296;2022-09-27T05:28:19;100433.50;;;10.86;75.19
64362;BME280;50685;53.346;-6.296;2022-09-27T05:30:45;100429.13;;;10.83;75.17
64362;BME280;50685;53.346;-6.296;2022-09-27T05:33:10;100418.56;;;10.80;75.27
64362;BME280;50685;53.346;-6.296;2022-09-27T05:35:36;100428.34;;;10.78;75.63
64362;BME280;50685;53.346;-6.296;2022-09-27T05:38:01;100423.09;;;10.75;75.95
64362;BME280;50685;53.346;-6.296;2022-09-27T05:40:26;100423.97;;;10.75;75.85
64362;BME280;50685;53.346;-6.296;2022-09-27T05:42:53;100429.31;;;10.72;76.23
64362;BME280;50685;53.346;-6.296;2022-09-27T05:45:19;100425.78;;;10.73;76.19
64362;BME280;50685;53.346;-6.296;2022-09-27T05:47:55;100429.38;;;10.71;76.32
64362;BME280;50685;53.346;-6.296;2022-09-27T05:50:23;100424.09;;;10.69;76.64
64362;BME280;50685;53.346;-6.296;2022-09-27T05:52:48;100417.84;;;10.70;76.42
64362;BME280;50685;53.346;-6.296;2022-09-27T05:55:14;100417.81;;;10.73;76.48
64362;BME280;50685;53.346;-6.296;2022-09-27T05:57:39;100416.03;;;10.74;76.63
64362;BME280;50685;53.346;-6.296;2022-09-27T06:00:05;100418.69;;;10.74;76.49
64362;BME280;50685;53.346;-6.296;2022-09-27T06:02:34;100411.69;;;10.70;76.82
64362;BME280;50685;53.346;-6.296;2022-09-27T06:04:59;100399.38;;;10.67;76.84
64362;BME280;50685;53.346;-6.296;2022-09-27T06:10:26;100404.88;;;10.56;77.74
64362;BME280;50685;53.346;-6.296;2022-09-27T06:13:15;100404.84;;;10.58;77.87
64362;BME280;50685;53.346;-6.296;2022-09-27T06:15:43;100406.59;;;10.59;78.05
64362;BME280;50685;53.346;-6.296;2022-09-27T06:18:28;100391.59;;;10.58;77.96
64362;BME280;50685;53.346;-6.296;2022-09-27T06:21:13;100389.88;;;10.55;78.04
64362;BME280;50685;53.346;-6.296;2022-09-27T06:35:52;100396.19;;;10.50;78.49
64362;BME280;50685;53.346;-6.296;2022-09-27T06:42:04;100396.06;;;10.56;78.17
64362;BME280;50685;53.346;-6.296;2022-09-27T06:44:40;100406.50;;;10.64;77.80
64362;BME280;50685;53.346;-6.296;2022-09-27T06:47:05;100399.38;;;10.67;77.77
64362;BME280;50685;53.346;-6.296;2022-09-27T06:49:33;100396.66;;;10.70;77.33
64362;BME280;50685;53.346;-6.296;2022-09-27T06:51:58;100408.16;;;10.71;77.57
64362;BME280;50685;53.346;-6.296;2022-09-27T06:54:34;100402.75;;;10.74;77.26
64362;BME280;50685;53.346;-6.296;2022-09-27T06:57:25;100394.81;;;10.75;76.99
64362;BME280;50685;53.346;-6.296;2022-09-27T07:00:18;100405.34;;;10.79;76.91
64362;BME280;50685;53.346;-6.296;2022-09-27T07:02:58;100401.69;;;10.84;76.67
64362;BME280;50685;53.346;-6.296;2022-09-27T07:05:59;100398.06;;;10.88;76.70
64362;BME280;50685;53.346;-6.296;2022-09-27T07:08:32;100396.31;;;10.87;76.45
64362;BME280;50685;53.346;-6.296;2022-09-27T07:11:05;100386.53;;;10.89;76.40
64362;BME280;50685;53.346;-6.296;2022-09-27T07:13:35;100389.13;;;10.92;76.32
64362;BME280;50685;53.346;-6.296;2022-09-27T07:16:04;100382.88;;;10.97;76.43
64362;BME280;50685;53.346;-6.296;2022-09-27T07:21:27;100376.53;;;11.02;75.90
64362;BME280;50685;53.346;-6.296;2022-09-27T07:23:52;100375.53;;;11.08;75.88
64362;BME280;50685;53.346;-6.296;2022-09-27T07:26:18;100378.09;;;11.13;75.75
64362;BME280;50685;53.346;-6.296;2022-09-27T07:28:46;100387.69;;;11.18;75.38
64362;BME280;50685;53.346;-6.296;2022-09-27T07:31:11;100388.50;;;11.22;75.47
64362;BME280;50685;53.346;-6.296;2022-09-27T07:33:37;100395.59;;;11.21;75.60
64362;BME280;50685;53.346;-6.296;2022-09-27T07:36:07;100398.22;;;11.23;75.59
64362;BME280;50685;53.346;-6.296;2022-09-27T07:38:33;100393.78;;;11.23;75.65
64362;BME280;50685;53.346;-6.296;2022-09-27T07:41:10;100384.94;;;11.23;75.70
64362;BME280;50685;53.346;-6.296;2022-09-27T07:43:38;100387.50;;;11.28;75.60
64362;BME280;50685;53.346;-6.296;2022-09-27T07:46:06;100368.00;;;11.29;75.65
64362;BME280;50685;53.346;-6.296;2022-09-27T07:48:32;100371.47;;;11.32;75.34
64362;BME280;50685;53.346;-6.296;2022-09-27T07:50:57;100374.94;;;11.36;75.29
64362;BME280;50685;53.346;-6.296;2022-09-27T07:53:33;100373.09;;;11.38;75.56
64362;BME280;50685;53.346;-6.296;2022-09-27T08:02:21;100369.09;;;11.57;74.57
64362;BME280;50685;53.346;-6.296;2022-09-27T08:05:02;100381.41;;;11.62;74.46
64362;BME280;50685;53.346;-6.296;2022-09-27T08:07:36;100373.34;;;11.66;74.24
64362;BME280;50685;53.346;-6.296;2022-09-27T08:10:03;100374.16;;;11.68;74.18
64362;BME280;50685;53.346;-6.296;2022-09-27T08:12:31;100378.50;;;11.72;74.14
64362;BME280;50685;53.346;-6.296;2022-09-27T08:14:57;100379.22;;;11.79;74.13
64362;BME280;50685;53.346;-6.296;2022-09-27T08:17:26;100381.75;;;11.84;74.02
64362;BME280;50685;53.346;-6.296;2022-09-27T08:19:51;100377.25;;;11.86;73.62
64362;BME280;50685;53.346;-6.296;2022-09-27T08:22:19;100381.66;;;11.88;73.72
64362;BME280;50685;53.346;-6.296;2022-09-27T08:24:45;100379.81;;;11.92;73.44
64362;BME280;50685;53.346;-6.296;2022-09-27T08:27:16;100373.63;;;11.90;73.15
64362;BME280;50685;53.346;-6.296;2022-09-27T08:29:49;100374.47;;;11.92;73.37
64362;BME280;50685;53.346;-6.296;2022-09-27T08:32:16;100375.34;;;11.93;73.29
64362;BME280;50685;53.346;-6.296;2022-09-27T08:34:41;100381.50;;;11.93;73.28
64362;BME280;50685;53.346;-6.296;2022-09-27T08:37:06;100374.38;;;11.95;73.28
64362;BME280;50685;53.346;-6.296;2022-09-27T08:39:34;100366.34;;;12.00;73.23
64362;BME280;50685;53.346;-6.296;2022-09-27T08:42:05;100359.13;;;12.05;72.82
64362;BME280;50685;53.346;-6.296;2022-09-27T08:47:15;100343.69;;;12.19;72.06
64362;BME280;50685;53.346;-6.296;2022-09-27T08:52:39;100352.00;;;12.38;71.57
64362;BME280;50685;53.346;-6.296;2022-09-27T08:55:16;100350.97;;;12.44;70.69
64362;BME280;50685;53.346;-6.296;2022-09-27T08:57:44;100352.72;;;12.45;71.11
64362;BME280;50685;53.346;-6.296;2022-09-27T09:00:14;100345.66;;;12.44;70.92
64362;BME280;50685;53.346;-6.296;2022-09-27T09:02:41;100351.81;;;12.46;71.18
64362;BME280;50685;53.346;-6.296;2022-09-27T09:23:39;100372.13;;;12.49;70.81
64362;BME280;50685;53.346;-6.296;2022-09-27T09:33:35;100353.91;;;12.66;69.98
64362;BME280;50685;53.346;-6.296;2022-09-27T09:36:22;100354.59;;;12.73;69.56
64362;BME280;50685;53.346;-6.296;2022-09-27T09:38:56;100356.31;;;12.76;69.58
64362;BME280;50685;53.346;-6.296;2022-09-27T09:41:38;100361.47;;;12.82;69.69
64362;BME280;50685;53.346;-6.296;2022-09-27T09:44:16;100365.66;;;12.89;69.22
64362;BME280;50685;53.346;-6.296;2022-09-27T09:46:47;100349.75;;;12.88;69.10
64362;BME280;50685;53.346;-6.296;2022-09-27T09:49:30;100348.78;;;12.90;68.55
64362;BME280;50685;53.346;-6.296;2022-09-27T09:52:35;100341.88;;;12.83;68.92
64362;BME280;50685;53.346;-6.296;2022-09-27T09:54:50;100335.44;;;12.92;68.79
64362;BME280;50685;53.346;-6.296;2022-09-27T10:00:21;100329.03;;;12.97;67.84
64362;BME280;50685;53.346;-6.296;2022-09-27T10:02:46;100337.09;;;12.96;67.96
64362;BME280;50685;53.346;-6.296;2022-09-27T10:05:17;100334.44;;;12.96;68.09
64362;BME280;50685;53.346;-6.296;2022-09-27T10:07:43;100336.38;;;12.89;68.07
64362;BME280;50685;53.346;-6.296;2022-09-27T10:10:12;100323.06;;;12.89;68.55
64362;BME280;50685;53.346;-6.296;2022-09-27T10:12:41;100321.34;;;12.88;68.67
64362;BME280;50685;53.346;-6.296;2022-09-27T10:15:11;100316.03;;;12.88;68.82
64362;BME280;50685;53.346;-6.296;2022-09-27T10:17:39;100326.69;;;12.88;68.43
64362;BME280;50685;53.346;-6.296;2022-09-27T10:20:05;100317.00;;;12.85;68.75
64362;BME280;50685;53.346;-6.296;2022-09-27T10:22:38;100316.09;;;12.85;69.28
64362;BME280;50685;53.346;-6.296;2022-09-27T10:25:04;100323.19;;;12.86;69.40
64362;BME280;50685;53.346;-6.296;2022-09-27T10:27:40;100322.28;;;12.87;69.88
64362;BME280;50685;53.346;-6.296;2022-09-27T10:30:19;100313.44;;;12.85;70.34
64362;BME280;50685;53.346;-6.296;2022-09-27T10:35:51;100303.59;;;12.89;70.38
64362;BME280;50685;53.346;-6.296;2022-09-27T10:40:42;100311.38;;;12.95;70.29
64362;BME280;50685;53.346;-6.296;2022-09-27T10:43:21;100300.69;;;12.96;70.16
64362;BME280;50685;53.346;-6.296;2022-09-27T10:45:52;100293.63;;;12.95;70.20
64362;BME280;50685;53.346;-6.296;2022-09-27T10:48:23;100303.41;;;12.95;69.80
64362;BME280;50685;53.346;-6.296;2022-09-27T10:50:57;100298.19;;;12.92;70.23
64362;BME280;50685;53.346;-6.296;2022-09-27T10:53:23;100287.63;;;12.89;70.22
64362;BME280;50685;53.346;-6.296;2022-09-27T10:55:49;100277.94;;;12.86;70.09
64362;BME280;50685;53.346;-6.296;2022-09-27T10:58:36;100281.47;;;12.86;69.93
64362;BME280;50685;53.346;-6.296;2022-09-27T11:01:08;100280.50;;;12.89;69.51
64362;BME280;50685;53.346;-6.296;2022-09-27T11:03:38;100282.09;;;12.95;69.17
64362;BME280;50685;53.346;-6.296;2022-09-27T11:06:30;100272.91;;;13.05;68.87
64362;BME280;50685;53.346;-6.296;2022-09-27T11:09:18;100276.13;;;13.16;68.26
64362;BME280;50685;53.346;-6.296;2022-09-27T11:11:47;100264.22;;;13.27;67.76
64362;BME280;50685;53.346;-6.296;2022-09-27T11:14:17;100255.25;;;13.29;66.98
64362;BME280;50685;53.346;-6.296;2022-09-27T11:19:31;100259.72;;;13.29;66.73
64362;BME280;50685;53.346;-6.296;2022-09-27T11:22:07;100234.16;;;13.23;65.99
64362;BME280;50685;53.346;-6.296;2022-09-27T11:27:29;100226.03;;;13.28;66.56
64362;BME280;50685;53.346;-6.296;2022-09-27T11:38:09;100250.13;;;13.23;66.27
64362;BME280;50685;53.346;-6.296;2022-09-27T11:40:51;100233.38;;;13.21;66.53
64362;BME280;50685;53.346;-6.296;2022-09-27T11:46:20;100234.28;;;13.20;66.35
64362;BME280;50685;53.346;-6.296;2022-09-27T12:10:03;100220.38;;;13.39;64.72
64362;BME280;50685;53.346;-6.296;2022-09-27T12:12:30;100223.81;;;13.42;64.44
64362;BME280;50685;53.346;-6.296;2022-09-27T12:15:02;100227.19;;;13.47;64.32
64362;BME280;50685;53.346;-6.296;2022-09-27T12:17:30;100226.13;;;13.53;64.09
64362;BME280;50685;53.346;-6.296;2022-09-27T12:20:27;100243.56;;;13.62;64.28
64362;BME280;50685;53.346;-6.296;2022-09-27T12:23:03;100231.78;;;13.69;64.14
64362;BME280;50685;53.346;-6.296;2022-09-27T12:25:41;100219.16;;;13.74;63.62
64362;BME280;50685;53.346;-6.296;2022-09-27T12:28:17;100227.19;;;13.73;63.32
64362;BME280;50685;53.346;-6.296;2022-09-27T12:30:49;100228.38;;;13.64;63.67
64362;BME280;50685;53.346;-6.296;2022-09-27T12:33:24;100223.19;;;13.61;63.89
64362;BME280;50685;53.346;-6.296;2022-09-27T12:35:52;100233.72;;;13.64;64.35
64362;BME280;50685;53.346;-6.296;2022-09-27T12:38:20;100213.50;;;13.58;63.80
64362;BME280;50685;53.346;-6.296;2022-09-27T12:40:51;100217.22;;;13.53;64.07
64362;BME280;50685;53.346;-6.296;2022-09-27T12:43:30;100228.72;;;13.55;64.24
64362;BME280;50685;53.346;-6.296;2022-09-27T12:48:57;100212.44;;;13.36;64.14
64362;BME280;50685;53.346;-6.296;2022-09-27T12:51:36;100208.84;;;13.38;64.36
64362;BME280;50685;53.346;-6.296;2022-09-27T13:04:42;100200.03;;;13.63;64.88
64362;BME280;50685;53.346;-6.296;2022-09-27T13:12:31;100201.19;;;13.54;65.79
64362;BME280;50685;53.346;-6.296;2022-09-27T13:15:02;100207.50;;;13.52;65.80
64362;BME280;50685;53.346;-6.296;2022-09-27T13:30:55;100197.56;;;13.30;66.65
64362;BME280;50685;53.346;-6.296;2022-09-27T13:33:27;100196.53;;;13.34;66.67
64362;BME280;50685;53.346;-6.296;2022-09-27T13:36:06;100200.16;;;13.31;66.18
64362;BME280;50685;53.346;-6.296;2022-09-27T13:38:32;100192.31;;;13.27;66.45
64362;BME280;50685;53.346;-6.296;2022-09-27T13:41:16;100203.13;;;13.22;66.57
64362;BME280;50685;53.346;-6.296;2022-09-27T13:46:18;100197.56;;;13.30;66.59
64362;BME280;50685;53.346;-6.296;2022-09-27T13:51:26;100204.00;;;13.23;66.53
64362;BME280;50685;53.346;-6.296;2022-09-27T13:54:00;100201.41;;;13.21;67.01
64362;BME280;50685;53.346;-6.296;2022-09-27T14:04:49;100191.19;;;13.07;67.03
64362;BME280;50685;53.346;-6.296;2022-09-27T14:07:25;100190.38;;;13.05;67.13
64362;BME280;50685;53.346;-6.296;2022-09-27T14:09:53;100184.31;;;13.00;67.60
64362;BME280;50685;53.346;-6.296;2022-09-27T14:12:20;100189.63;;;13.01;67.74
64362;BME280;50685;53.346;-6.296;2022-09-27T14:14:48;100184.19;;;13.05;67.41
64362;BME280;50685;53.346;-6.296;2022-09-27T14:17:15;100184.91;;;13.10;67.23
64362;BME280;50685;53.346;-6.296;2022-09-27T14:19:43;100183.97;;;13.11;67.52
64362;BME280;50685;53.346;-6.296;2022-09-27T14:22:18;100184.03;;;13.09;67.54
64362;BME280;50685;53.346;-6.296;2022-09-27T14:24:48;100175.16;;;13.09;67.61
64362;BME280;50685;53.346;-6.296;2022-09-27T14:27:15;100172.47;;;13.10;67.54
64362;BME280;50685;53.346;-6.296;2022-09-27T14:29:42;100179.44;;;13.14;67.49
64362;BME280;50685;53.346;-6.296;2022-09-27T14:32:12;100177.81;;;13.09;67.71
64362;BME280;50685;53.346;-6.296;2022-09-27T14:34:38;100179.50;;;13.13;67.81
64362;BME280;50685;53.346;-6.296;2022-09-27T14:37:10;100174.00;;;13.17;67.47
64362;BME280;50685;53.346;-6.296;2022-09-27T14:39:58;100159.75;;;13.18;67.43
64362;BME280;50685;53.346;-6.296;2022-09-27T14:42:30;100164.06;;;13.23;67.08
64362;BME280;50685;53.346;-6.296;2022-09-27T14:45:02;100171.28;;;13.19;67.28
64362;BME280;50685;53.346;-6.296;2022-09-27T14:47:28;100168.41;;;13.25;67.21
64362;BME280;50685;53.346;-6.296;2022-09-27T14:55:25;100159.50;;;13.26;66.55
64362;BME280;50685;53.346;-6.296;2022-09-27T14:57:53;100156.78;;;13.28;66.20
64362;BME280;50685;53.346;-6.296;2022-09-27T15:00:29;100143.34;;;13.31;65.97
64362;BME280;50685;53.346;-6.296;2022-09-27T15:02:56;100151.13;;;13.39;66.33
64362;BME280;50685;53.346;-6.296;2022-09-27T15:05:26;100139.78;;;13.32;66.20
64362;BME280;50685;53.346;-6.296;2022-09-27T15:07:52;100150.53;;;13.29;66.23
64362;BME280;50685;53.346;-6.296;2022-09-27T15:10:21;100152.53;;;13.22;66.46
64362;BME280;50685;53.346;-6.296;2022-09-27T15:12:50;100159.66;;;13.22;66.84
64362;BME280;50685;53.346;-6.296;2022-09-27T15:15:21;100151.69;;;13.22;66.92
64362;BME280;50685;53.346;-6.296;2022-09-27T15:17:49;100161.47;;;13.21;67.19
64362;BME280;50685;53.346;-6.296;2022-09-27T15:20:25;100170.31;;;13.22;67.21
64362;BME280;50685;53.346;-6.296;2022-09-27T15:22:54;100163.16;;;13.24;67.01
64362;BME280;50685;53.346;-6.296;2022-09-27T15:25:40;100166.72;;;13.23;66.53
64362;BME280;50685;53.346;-6.296;2022-09-27T15:28:17;100165.00;;;13.22;66.44
64362;BME280;50685;53.346;-6.296;2022-09-27T15:30:56;100145.66;;;13.16;66.55
64362;BME280;50685;53.346;-6.296;2022-09-27T15:33:24;100157.09;;;13.18;66.41
64362;BME280;50685;53.346;-6.296;2022-09-27T15:36:05;100161.66;;;13.15;66.05
64362;BME280;50685;53.346;-6.296;2022-09-27T15:38:52;100168.63;;;13.19;66.23
64362;BME280;50685;53.346;-6.296;2022-09-27T15:41:58;100165.81;;;13.24;66.61
64362;BME280;50685;53.346;-6.296;2022-09-27T15:49:57;100159.03;;;13.13;66.50
64362;BME280;50685;53.346;-6.296;2022-09-27T15:52:43;100159.75;;;13.18;66.36
64362;BME280;50685;53.346;-6.296;2022-09-27T15:55:14;100162.59;;;13.14;66.41
64362;BME280;50685;53.346;-6.296;2022-09-27T16:00:53;100159.88;;;12.89;67.23
64362;BME280;50685;53.346;-6.296;2022-09-27T16:03:19;100166.94;;;12.90;67.30
64362;BME280;50685;53.346;-6.296;2022-09-27T16:06:05;100158.06;;;12.89;67.94
64362;BME280;50685;53.346;-6.296;2022-09-27T16:08:47;100160.06;;;12.82;67.98
64362;BME280;50685;53.346;-6.296;2022-09-27T16:18:26;100166.75;;;12.67;69.53
64362;BME280;50685;53.346;-6.296;2022-09-27T16:39:46;100159.16;;;12.25;71.45
64362;BME280;50685;53.346;-6.296;2022-09-27T17:09:26;100164.50;;;11.94;72.99